createdAt,value
2019-05-16T00:00:08.406Z,20.29
2019-05-16T00:02:33.434Z,20.29
2019-05-16T00:04:59.468Z,20.29
2019-05-16T00:07:28.172Z,20.29
2019-05-16T00:09:51.495Z,20.29
2019-05-16T00:12:18.414Z,20.29
2019-05-16T00:14:43.528Z,20.29
2019-05-16T00:17:09.557Z,20.29
2019-05-16T00:19:35.567Z,20.29
2019-05-16T00:22:01.587Z,20.28
2019-05-16T00:24:29.133Z,20.28
2019-05-16T00:26:53.602Z,20.29
2019-05-16T00:29:19.622Z,20.28
2019-05-16T00:31:45.637Z,20.29
2019-05-16T00:34:11.750Z,20.28
2019-05-16T00:36:38.298Z,20.27
2019-05-16T00:39:03.786Z,20.27
2019-05-16T00:41:29.780Z,20.27
2019-05-16T00:43:57.617Z,20.27
2019-05-16T00:46:21.792Z,20.27
2019-05-16T00:48:48.725Z,20.27
2019-05-16T00:51:13.815Z,20.27
2019-05-16T00:53:39.815Z,20.27
2019-05-16T00:56:07.776Z,20.27
2019-05-16T00:58:31.845Z,20.27
2019-05-16T01:00:59.289Z,20.27
2019-05-16T01:03:25.546Z,20.26
2019-05-16T01:05:51.534Z,20.26
2019-05-16T01:08:18.888Z,20.27
2019-05-16T01:10:43.557Z,20.27
2019-05-16T01:13:09.579Z,20.27
2019-05-16T01:15:37.865Z,20.26
2019-05-16T01:18:01.597Z,20.26
2019-05-16T01:20:28.002Z,20.26
2019-05-16T01:22:53.590Z,20.26
2019-05-16T01:25:19.749Z,20.27
2019-05-16T01:27:47.602Z,20.26
2019-05-16T01:30:11.637Z,20.26
2019-05-16T01:32:39.220Z,20.25
2019-05-16T01:35:03.711Z,20.25
2019-05-16T01:37:29.727Z,20.26
2019-05-16T01:39:55.762Z,20.24
2019-05-16T01:42:21.763Z,20.25
2019-05-16T01:44:48.684Z,20.25
2019-05-16T01:47:13.792Z,20.25
2019-05-16T01:49:39.810Z,20.25
2019-05-16T01:52:05.808Z,20.25
2019-05-16T01:54:31.834Z,20.25
2019-05-16T01:56:59.445Z,20.24
2019-05-16T01:59:23.873Z,20.24
2019-05-16T02:01:49.893Z,20.24
2019-05-16T02:04:18.209Z,20.24
2019-05-16T02:06:51.722Z,20.24
2019-05-16T02:09:08.121Z,20.24
2019-05-16T02:11:33.952Z,20.23
2019-05-16T02:13:59.957Z,20.24
2019-05-16T02:16:27.826Z,20.23
2019-05-16T02:18:51.975Z,20.23
2019-05-16T02:21:18.339Z,20.23
2019-05-16T02:23:43.996Z,20.23
2019-05-16T02:26:09.982Z,20.23
2019-05-16T02:28:40.180Z,20.22
2019-05-16T02:31:02.028Z,20.23
2019-05-16T02:33:31.422Z,20.22
2019-05-16T02:35:55.612Z,20.22
2019-05-16T02:38:21.190Z,20.22
2019-05-16T02:40:46.114Z,20.22
2019-05-16T02:43:12.642Z,20.22
2019-05-16T02:45:41.324Z,20.22
2019-05-16T02:48:04.213Z,20.22
2019-05-16T02:50:31.547Z,20.22
2019-05-16T02:52:56.265Z,20.21
2019-05-16T02:55:22.250Z,20.22
2019-05-16T02:57:50.727Z,20.21
2019-05-16T03:00:14.283Z,20.21
2019-05-16T03:02:41.974Z,20.21
2019-05-16T03:05:06.344Z,20.21
2019-05-16T03:07:41.120Z,20.21
2019-05-16T03:10:01.616Z,20.21
2019-05-16T03:12:24.398Z,20.21
2019-05-16T03:14:54.174Z,20.20
2019-05-16T03:17:16.413Z,20.21
2019-05-16T03:19:42.430Z,20.21
2019-05-16T03:22:11.418Z,20.20
2019-05-16T03:24:34.490Z,20.20
2019-05-16T03:27:01.631Z,20.21
2019-05-16T03:29:26.592Z,20.20
2019-05-16T03:31:54.102Z,20.20
2019-05-16T03:34:24.902Z,20.20
2019-05-16T03:36:44.722Z,20.20
2019-05-16T03:39:10.850Z,20.19
2019-05-16T03:41:36.699Z,20.19
2019-05-16T03:44:02.693Z,20.20
2019-05-16T03:46:30.925Z,20.20
2019-05-16T03:48:54.719Z,20.19
2019-05-16T03:51:21.521Z,20.20
2019-05-16T03:53:46.826Z,20.19
2019-05-16T03:56:12.850Z,20.20
2019-05-16T03:58:41.607Z,20.19
2019-05-16T04:01:04.887Z,20.20
2019-05-16T04:03:33.150Z,20.20
2019-05-16T04:05:57.011Z,20.19
2019-05-16T04:08:24.988Z,20.19
2019-05-16T04:10:51.712Z,20.19
2019-05-16T04:13:15.071Z,20.19
2019-05-16T04:15:41.064Z,20.18
2019-05-16T04:18:07.100Z,20.19
2019-05-16T04:20:33.107Z,20.19
2019-05-16T04:23:01.114Z,20.20
2019-05-16T04:25:25.131Z,20.19
2019-05-16T04:27:51.176Z,20.20
2019-05-16T04:30:17.224Z,20.19
2019-05-16T04:32:43.359Z,20.19
2019-05-16T04:35:11.309Z,20.19
2019-05-16T04:37:35.540Z,20.19
2019-05-16T04:40:01.895Z,20.19
2019-05-16T04:42:30.743Z,20.19
2019-05-16T04:44:53.662Z,20.20
2019-05-16T04:47:21.032Z,20.20
2019-05-16T04:49:45.964Z,20.20
2019-05-16T04:52:11.957Z,20.20
2019-05-16T04:54:41.486Z,20.20
2019-05-16T04:57:04.298Z,20.20
2019-05-16T04:59:31.286Z,20.20
2019-05-16T05:01:56.502Z,20.20
2019-05-16T05:04:22.556Z,20.20
2019-05-16T05:06:51.009Z,20.21
2019-05-16T05:09:14.602Z,20.20
2019-05-16T05:11:41.251Z,20.20
2019-05-16T05:14:06.606Z,20.20
2019-05-16T05:16:32.624Z,20.19
2019-05-16T05:19:00.343Z,20.19
2019-05-16T05:21:24.705Z,20.19
2019-05-16T05:23:50.999Z,20.19
2019-05-16T05:26:16.768Z,20.19
2019-05-16T05:28:42.766Z,20.19
2019-05-16T05:31:10.847Z,20.18
2019-05-16T05:33:34.806Z,20.18
2019-05-16T05:36:01.291Z,20.18
2019-05-16T05:38:26.894Z,20.18
2019-05-16T05:40:53.008Z,20.18
2019-05-16T05:43:21.596Z,20.17
2019-05-16T05:45:45.282Z,20.17
2019-05-16T05:48:11.494Z,20.17
2019-05-16T05:50:40.010Z,20.17
2019-05-16T05:53:03.737Z,20.17
2019-05-16T05:55:31.300Z,20.16
2019-05-16T05:57:55.859Z,20.16
2019-05-16T06:00:21.893Z,20.15
2019-05-16T06:02:47.887Z,20.16
2019-05-16T06:05:13.947Z,20.15
2019-05-16T06:07:40.432Z,20.16
2019-05-16T06:10:05.986Z,20.15
2019-05-16T06:12:31.991Z,20.15
2019-05-16T06:15:05.898Z,20.15
2019-05-16T06:17:24.024Z,20.15
2019-05-16T06:19:50.025Z,20.14
2019-05-16T06:22:16.165Z,20.15
2019-05-16T06:24:42.164Z,20.14
2019-05-16T06:27:09.847Z,20.14
2019-05-16T06:29:34.194Z,20.13
2019-05-16T06:32:00.302Z,20.14
2019-05-16T06:34:26.373Z,20.13
2019-05-16T06:36:52.492Z,20.12
2019-05-16T06:39:19.877Z,20.12
2019-05-16T06:41:44.513Z,20.13
2019-05-16T06:44:10.793Z,20.12
2019-05-16T06:46:44.468Z,20.13
2019-05-16T06:49:02.719Z,20.12
2019-05-16T06:51:30.532Z,20.12
2019-05-16T06:53:54.762Z,20.12
2019-05-16T06:56:20.872Z,20.11
2019-05-16T06:58:51.007Z,20.11
2019-05-16T07:01:12.893Z,20.11
2019-05-16T07:03:40.109Z,20.11
2019-05-16T07:06:04.977Z,20.10
2019-05-16T07:08:31.343Z,20.10
2019-05-16T07:10:57.014Z,20.10
2019-05-16T07:13:23.023Z,20.10
2019-05-16T07:15:50.027Z,20.10
2019-05-16T07:18:15.082Z,20.10
2019-05-16T07:20:41.099Z,20.10
2019-05-16T07:23:07.164Z,20.10
2019-05-16T07:25:33.182Z,20.09
2019-05-16T07:28:00.683Z,20.09
2019-05-16T07:30:25.208Z,20.09
2019-05-16T07:32:51.230Z,20.09
2019-05-16T07:35:17.236Z,20.08
2019-05-16T07:37:43.285Z,20.09
2019-05-16T07:40:19.358Z,20.08
2019-05-16T07:42:35.307Z,20.09
2019-05-16T07:45:01.315Z,20.08
2019-05-16T07:47:27.333Z,20.08
2019-05-16T07:49:53.444Z,20.09
2019-05-16T07:52:20.914Z,20.08
2019-05-16T07:54:45.505Z,20.09
2019-05-16T07:57:19.651Z,20.07
2019-05-16T07:59:37.639Z,20.08
2019-05-16T08:02:03.669Z,20.08
2019-05-16T08:04:30.398Z,20.08
2019-05-16T08:06:55.678Z,20.08
2019-05-16T08:09:21.704Z,20.08
2019-05-16T08:11:50.026Z,20.08
2019-05-16T08:14:13.734Z,20.08
2019-05-16T08:19:05.846Z,20.08
2019-05-16T08:21:31.909Z,20.07
2019-05-16T08:24:05.814Z,20.08
2019-05-16T08:26:24.035Z,20.08
2019-05-16T08:28:50.556Z,20.08
2019-05-16T08:31:16.170Z,20.08
2019-05-16T08:33:42.179Z,20.05
2019-05-16T08:36:11.630Z,20.07
2019-05-16T08:38:34.205Z,20.08
2019-05-16T08:41:11.515Z,20.07
2019-05-16T08:43:26.311Z,20.07
2019-05-16T08:45:52.312Z,20.07
2019-05-16T08:48:22.683Z,20.08
2019-05-16T08:50:04.936Z,20.08
2019-05-16T08:55:36.689Z,20.07
2019-05-16T08:58:02.903Z,20.07
2019-05-16T09:00:33.313Z,20.08
2019-05-16T09:02:54.938Z,20.08
2019-05-16T09:05:22.589Z,20.08
2019-05-16T09:07:47.001Z,20.08
2019-05-16T09:10:14.343Z,20.07
2019-05-16T09:10:38.789Z,20.08
2019-05-16T09:10:45.923Z,20.08
2019-05-16T09:12:39.040Z,20.08
2019-05-16T09:15:07.587Z,20.08
2019-05-16T09:17:31.059Z,20.08
2019-05-16T09:19:57.799Z,20.09
2019-05-16T09:22:23.451Z,20.09
2019-05-16T09:24:49.464Z,20.09
2019-05-16T09:27:17.902Z,20.09
2019-05-16T09:29:41.473Z,20.08
2019-05-16T09:32:15.885Z,20.07
2019-05-16T09:34:33.516Z,20.08
2019-05-16T09:37:01.154Z,20.07
2019-05-16T09:39:27.715Z,20.09
2019-05-16T09:41:55.610Z,20.08
2019-05-16T09:44:18.739Z,20.08
2019-05-16T09:46:43.649Z,20.08
2019-05-16T09:49:19.413Z,20.08
2019-05-16T09:51:37.683Z,20.09
2019-05-16T09:54:01.756Z,20.10
2019-05-16T09:56:27.749Z,20.11
2019-05-16T09:58:53.789Z,20.11
2019-05-16T10:01:19.796Z,20.11
2019-05-16T10:03:47.751Z,20.11
2019-05-16T10:06:11.828Z,20.11
2019-05-16T10:08:37.876Z,20.11
2019-05-16T10:11:06.184Z,20.11
2019-05-16T10:13:29.881Z,20.12
2019-05-16T10:15:55.894Z,20.12
2019-05-16T10:18:21.901Z,20.12
2019-05-16T10:20:47.919Z,20.12
2019-05-16T10:23:15.044Z,20.12
2019-05-16T10:25:39.951Z,20.11
2019-05-16T10:28:05.977Z,20.12
2019-05-16T10:30:31.963Z,20.11
2019-05-16T10:33:00.774Z,20.11
2019-05-16T10:35:24.018Z,20.12
2019-05-16T10:37:50.018Z,20.11
2019-05-16T10:40:18.302Z,20.11
2019-05-16T10:42:42.053Z,20.12
2019-05-16T10:45:08.891Z,20.11
2019-05-16T10:47:36.900Z,20.12
2019-05-16T10:50:00.297Z,20.12
2019-05-16T10:52:27.003Z,20.12
2019-05-16T10:54:58.454Z,20.12
2019-05-16T10:57:18.428Z,20.12
2019-05-16T11:00:01.857Z,20.13
2019-05-16T11:02:10.411Z,20.13
2019-05-16T11:04:52.639Z,20.12
2019-05-16T11:07:02.381Z,20.12
2019-05-16T11:09:28.490Z,20.12
2019-05-16T11:11:56.975Z,20.12
2019-05-16T11:14:20.542Z,20.12
2019-05-16T11:16:47.361Z,20.12
2019-05-16T11:19:18.268Z,20.12
2019-05-16T11:21:38.581Z,20.12
2019-05-16T11:24:06.298Z,20.12
2019-05-16T11:26:31.146Z,20.11
2019-05-16T11:28:57.138Z,20.11
2019-05-16T11:31:23.158Z,20.11
2019-05-16T11:33:49.150Z,20.11
2019-05-16T11:36:16.722Z,20.11
2019-05-16T11:38:41.212Z,20.10
2019-05-16T11:41:07.423Z,20.11
2019-05-16T11:43:33.262Z,20.11
2019-05-16T11:45:59.281Z,20.12
2019-05-16T11:48:28.854Z,20.11
2019-05-16T11:50:51.302Z,20.11
2019-05-16T11:53:17.674Z,20.11
2019-05-16T11:55:51.817Z,20.12
2019-05-16T11:58:09.472Z,20.11
2019-05-16T12:00:37.243Z,20.12
2019-05-16T12:03:01.493Z,20.12
2019-05-16T12:05:27.507Z,20.13
2019-05-16T12:07:56.924Z,20.13
2019-05-16T12:10:19.521Z,20.13
2019-05-16T12:12:45.648Z,20.13
2019-05-16T12:15:11.659Z,20.14
2019-05-16T12:17:37.687Z,20.14
2019-05-16T12:20:03.691Z,20.14
2019-05-16T12:22:29.718Z,20.15
2019-05-16T12:24:57.379Z,20.13
2019-05-16T12:27:21.785Z,20.14
2019-05-16T12:29:54.151Z,20.16
2019-05-16T12:32:13.815Z,20.17
2019-05-16T12:34:39.837Z,20.16
2019-05-16T12:37:08.575Z,20.17
2019-05-16T12:39:37.642Z,20.18
2019-05-16T12:42:00.622Z,20.17
2019-05-16T12:44:26.973Z,20.18
2019-05-16T12:46:52.665Z,20.18
2019-05-16T12:49:18.670Z,20.18
2019-05-16T12:51:46.497Z,20.19
2019-05-16T12:54:10.688Z,20.20
2019-05-16T12:56:37.675Z,20.20
2019-05-16T12:59:02.717Z,20.19
2019-05-16T13:01:33.970Z,20.20
2019-05-16T13:03:54.927Z,20.20
2019-05-16T13:06:20.925Z,20.21
2019-05-16T13:08:46.963Z,20.22
2019-05-16T13:11:12.960Z,20.21
2019-05-16T13:13:38.961Z,20.22
2019-05-16T13:16:07.322Z,20.21
2019-05-16T13:18:31.003Z,20.20
2019-05-16T13:20:57.485Z,20.21
2019-05-16T13:23:23.110Z,20.21
2019-05-16T13:25:49.148Z,20.22
2019-05-16T13:28:15.294Z,20.21
2019-05-16T13:30:41.291Z,20.22
2019-05-16T13:33:07.493Z,20.22
2019-05-16T13:35:33.427Z,20.22
2019-05-16T13:37:59.440Z,20.21
2019-05-16T13:40:27.546Z,20.22
2019-05-16T13:42:53.890Z,20.21
2019-05-16T13:45:19.914Z,20.21
2019-05-16T13:47:48.837Z,20.21
2019-05-16T13:50:12.737Z,20.21
2019-05-16T13:52:37.971Z,20.22
2019-05-16T13:55:04.061Z,20.21
2019-05-16T13:57:30.087Z,20.20
2019-05-16T13:59:56.741Z,20.21
2019-05-16T14:02:22.116Z,20.20
2019-05-16T14:04:48.141Z,20.20
2019-05-16T14:07:16.980Z,20.20
2019-05-16T14:09:40.526Z,20.20
2019-05-16T14:12:06.784Z,20.19
2019-05-16T14:14:37.989Z,20.20
2019-05-16T14:16:58.593Z,20.19
2019-05-16T14:19:27.317Z,20.19
2019-05-16T14:21:50.645Z,20.19
2019-05-16T14:24:18.087Z,20.18
2019-05-16T14:26:42.707Z,20.19
2019-05-16T14:29:08.847Z,20.19
2019-05-16T14:31:37.384Z,20.19
2019-05-16T14:34:00.913Z,20.18
2019-05-16T14:36:27.986Z,20.19
2019-05-16T14:38:53.051Z,20.19
2019-05-16T14:41:19.079Z,20.18
2019-05-16T14:43:46.825Z,20.18
2019-05-16T14:46:11.134Z,20.18
2019-05-16T14:48:37.266Z,20.18
2019-05-16T14:51:03.294Z,20.18
2019-05-16T14:53:29.227Z,20.17
2019-05-16T14:55:57.644Z,20.18
2019-05-16T14:58:21.264Z,20.15
2019-05-16T15:00:49.306Z,20.16
2019-05-16T15:03:14.713Z,20.17
2019-05-16T15:05:42.881Z,20.17
2019-05-16T15:08:08.205Z,20.16
2019-05-16T15:10:32.889Z,20.17
2019-05-16T15:12:58.925Z,20.17
2019-05-16T15:15:27.873Z,20.17
2019-05-16T15:17:50.951Z,20.16
2019-05-16T15:20:18.220Z,20.16
2019-05-16T15:22:43.049Z,20.17
2019-05-16T15:25:09.068Z,20.15
2019-05-16T15:27:37.001Z,20.16
2019-05-16T15:30:01.091Z,20.16
2019-05-16T15:32:28.262Z,20.16
2019-05-16T15:34:53.124Z,20.16
2019-05-16T15:37:19.428Z,20.16
2019-05-16T15:39:47.607Z,20.17
2019-05-16T15:42:12.642Z,20.17
2019-05-16T15:44:38.898Z,20.18
2019-05-16T15:47:07.405Z,20.17
2019-05-16T15:49:30.940Z,20.22
2019-05-16T15:51:56.990Z,20.22
2019-05-16T15:54:23.889Z,20.21
2019-05-16T15:56:49.887Z,20.21
2019-05-16T15:59:17.945Z,20.22
2019-05-16T16:01:41.946Z,20.22
2019-05-16T16:04:09.768Z,20.23
2019-05-16T16:06:37.972Z,20.23
2019-05-16T16:09:02.483Z,20.23
2019-05-16T16:11:28.563Z,20.25
2019-05-16T16:13:57.531Z,20.24
2019-05-16T16:16:20.874Z,20.26
2019-05-16T16:18:46.986Z,20.26
2019-05-16T16:21:12.914Z,20.26
2019-05-16T16:23:38.958Z,20.26
2019-05-16T16:26:07.156Z,20.27
2019-05-16T16:28:30.998Z,20.26
2019-05-16T16:30:57.148Z,20.27
2019-05-16T16:33:27.328Z,20.28
2019-05-16T16:35:49.082Z,20.27
2019-05-16T16:38:16.966Z,20.27
2019-05-16T16:40:41.102Z,20.27
2019-05-16T16:43:09.252Z,20.27
2019-05-16T16:45:35.278Z,20.27
2019-05-16T16:48:01.308Z,20.27
2019-05-16T16:50:27.311Z,20.27
2019-05-16T16:52:53.347Z,20.27
2019-05-16T16:55:19.460Z,20.27
2019-05-16T16:57:47.258Z,20.26
2019-05-16T17:00:11.484Z,20.27
2019-05-16T17:02:37.781Z,20.27
2019-05-16T17:05:03.551Z,20.27
2019-05-16T17:07:29.549Z,20.26
2019-05-16T17:10:06.994Z,20.26
2019-05-16T17:12:33.477Z,20.27
2019-05-16T17:14:59.654Z,20.27
2019-05-16T17:17:26.561Z,20.27
2019-05-16T17:19:51.741Z,20.26
2019-05-16T17:22:30.670Z,20.26
2019-05-16T17:25:00.815Z,20.26
2019-05-16T17:27:27.033Z,20.26
2019-05-16T17:29:53.502Z,20.26
2019-05-16T17:32:20.170Z,20.27
2019-05-16T17:34:46.173Z,20.26
2019-05-16T17:37:12.222Z,20.27
2019-05-16T17:39:38.329Z,20.27
2019-05-16T17:42:04.554Z,20.28
2019-05-16T17:44:30.786Z,20.27
2019-05-16T17:46:57.552Z,20.26
2019-05-16T17:49:22.932Z,20.27
2019-05-16T17:51:48.935Z,20.28
2019-05-16T17:54:17.171Z,20.28
2019-05-16T17:56:50.532Z,20.29
2019-05-16T17:59:17.022Z,20.30
2019-05-16T18:01:42.590Z,20.31
2019-05-16T18:04:08.748Z,20.31
2019-05-16T18:06:36.932Z,20.32
2019-05-16T18:09:00.811Z,20.33
2019-05-16T18:11:26.914Z,20.32
2019-05-16T18:13:52.920Z,20.31
2019-05-16T18:16:18.928Z,20.30
2019-05-16T18:18:46.874Z,20.31
2019-05-16T18:21:11.145Z,20.31
2019-05-16T18:23:37.256Z,20.31
2019-05-16T18:26:03.274Z,20.31
2019-05-16T18:28:29.394Z,20.31
2019-05-16T18:30:56.660Z,20.31
2019-05-16T18:33:21.469Z,20.31
2019-05-16T18:35:47.489Z,20.32
2019-05-16T18:38:13.551Z,20.31
2019-05-16T18:40:39.548Z,20.32
2019-05-16T18:43:08.102Z,20.33
2019-05-16T18:45:31.593Z,20.36
2019-05-16T18:47:57.876Z,20.36
2019-05-16T18:50:23.873Z,20.34
2019-05-16T18:52:52.951Z,20.35
2019-05-16T18:55:28.140Z,20.35
2019-05-16T18:57:57.801Z,20.35
2019-05-16T19:00:24.082Z,20.36
2019-05-16T19:02:50.082Z,20.36
2019-05-16T19:05:17.223Z,20.36
2019-05-16T19:07:42.272Z,20.35
2019-05-16T19:10:08.273Z,20.35
2019-05-16T19:12:36.944Z,20.35
2019-05-16T19:15:12.176Z,20.36
2019-05-16T19:17:38.167Z,20.36
2019-05-16T19:20:06.464Z,20.35
2019-05-16T19:22:30.278Z,20.35
2019-05-16T19:24:57.434Z,20.36
2019-05-16T19:27:22.937Z,20.36
2019-05-16T19:29:49.060Z,20.36
2019-05-16T19:32:17.090Z,20.34
2019-05-16T19:34:41.103Z,20.35
2019-05-16T19:37:07.164Z,20.36
2019-05-16T19:39:33.109Z,20.36
2019-05-16T19:41:59.132Z,20.36
2019-05-16T19:44:27.256Z,20.37
2019-05-16T19:46:51.207Z,20.36
2019-05-16T19:49:17.253Z,20.37
2019-05-16T19:51:46.060Z,20.37
2019-05-16T19:54:09.259Z,20.37
2019-05-16T19:56:37.384Z,20.37
2019-05-16T19:59:01.438Z,20.37
2019-05-16T20:01:27.582Z,20.37
2019-05-16T20:03:53.494Z,20.37
2019-05-16T20:06:19.516Z,20.32
2019-05-16T20:08:45.523Z,20.37
2019-05-16T20:11:11.538Z,20.34
2019-05-16T20:13:37.664Z,20.37
2019-05-16T20:16:03.658Z,20.37
2019-05-16T20:18:29.672Z,20.38
2019-05-16T20:20:56.794Z,20.38
2019-05-16T20:23:21.708Z,20.37
2019-05-16T20:25:47.704Z,20.38
2019-05-16T20:28:13.724Z,20.39
2019-05-16T20:30:39.752Z,20.38
2019-05-16T20:33:08.978Z,20.38
2019-05-16T20:35:31.828Z,20.38
2019-05-16T20:37:57.824Z,20.38
2019-05-16T20:40:23.921Z,20.38
2019-05-16T20:42:49.918Z,20.39
2019-05-16T20:45:16.925Z,20.38
2019-05-16T20:47:42.000Z,20.38
2019-05-16T20:50:08.030Z,20.38
2019-05-16T20:52:34.046Z,20.38
2019-05-16T20:55:00.041Z,20.39
2019-05-16T20:57:26.540Z,20.39
2019-05-16T20:59:52.050Z,20.39
2019-05-16T21:02:18.044Z,20.40
2019-05-16T21:04:46.395Z,20.40
2019-05-16T21:07:11.227Z,20.40
2019-05-16T21:09:56.977Z,20.41
2019-05-16T21:12:20.739Z,20.40
2019-05-16T21:14:46.984Z,20.40
2019-05-16T21:17:13.219Z,20.40
2019-05-16T21:19:39.435Z,20.39
2019-05-16T21:22:07.215Z,20.39
2019-05-16T21:24:31.372Z,20.39
2019-05-16T21:26:57.399Z,20.39
2019-05-16T21:29:23.416Z,20.38
2019-05-16T21:31:49.418Z,20.37
2019-05-16T21:34:16.150Z,20.38
2019-05-16T21:36:41.575Z,20.38
2019-05-16T21:39:08.521Z,20.37
2019-05-16T21:41:33.754Z,20.37
2019-05-16T21:43:59.787Z,20.36
2019-05-16T21:46:27.138Z,20.36
2019-05-16T21:48:51.859Z,20.36
2019-05-16T21:51:19.731Z,20.35
2019-05-16T21:53:43.968Z,20.35
2019-05-16T21:56:09.999Z,20.34
2019-05-16T21:58:37.039Z,20.33
2019-05-16T22:01:02.055Z,20.32
2019-05-16T22:03:28.067Z,20.33
2019-05-16T22:05:57.314Z,20.32
2019-05-16T22:08:20.199Z,20.32
2019-05-16T22:10:46.683Z,20.32
2019-05-16T22:13:12.273Z,20.32
2019-05-16T22:15:38.288Z,20.31
2019-05-16T22:18:04.318Z,20.31
2019-05-16T22:20:30.332Z,20.30
2019-05-16T22:22:57.427Z,20.31
2019-05-16T22:25:22.433Z,20.30
2019-05-16T22:27:48.967Z,20.30
2019-05-16T22:30:16.366Z,20.29
2019-05-16T22:32:40.492Z,20.30
2019-05-16T22:35:07.822Z,20.29
2019-05-16T22:37:32.622Z,20.29
2019-05-16T22:39:59.717Z,20.29
2019-05-16T22:42:26.631Z,20.29
2019-05-16T22:44:50.647Z,20.28
2019-05-16T22:47:17.205Z,20.28
2019-05-16T22:49:42.683Z,20.28
2019-05-16T22:52:08.688Z,20.28
2019-05-16T22:54:36.859Z,20.27
2019-05-16T22:57:00.706Z,20.27
2019-05-16T22:59:27.185Z,20.27
2019-05-16T23:01:52.728Z,20.27
2019-05-16T23:04:18.759Z,20.26
2019-05-16T23:06:44.779Z,20.27
2019-05-16T23:09:10.796Z,20.25
2019-05-16T23:11:36.818Z,20.26
2019-05-16T23:14:02.820Z,20.26
2019-05-16T23:16:28.838Z,20.26
2019-05-16T23:18:56.978Z,20.26
2019-05-16T23:21:20.851Z,20.26
2019-05-16T23:23:46.846Z,20.25
2019-05-16T23:26:12.884Z,20.25
2019-05-16T23:28:38.899Z,20.25
2019-05-16T23:31:04.919Z,20.25
2019-05-16T23:33:30.940Z,20.25
2019-05-16T23:35:57.564Z,20.25
2019-05-16T23:38:22.934Z,20.25
2019-05-16T23:40:48.968Z,20.25
2019-05-16T23:43:15.005Z,20.24
2019-05-16T23:45:41.031Z,20.24
2019-05-16T23:48:10.289Z,20.24
2019-05-16T23:50:33.046Z,20.24
2019-05-16T23:52:59.078Z,20.24
2019-05-16T23:55:27.623Z,20.24
2019-05-16T23:57:51.060Z,20.24
